createdAt,value
2019-01-24T00:01:20.618Z,100883.73
2019-01-24T00:04:24.841Z,100880.81
2019-01-24T00:07:25.786Z,100888.57
2019-01-24T00:10:26.728Z,100881.56
2019-01-24T00:13:27.956Z,100885.55
2019-01-24T00:16:28.903Z,100885.89
2019-01-24T00:19:29.982Z,100892.89
2019-01-24T00:22:30.978Z,100893.19
2019-01-24T00:25:31.925Z,100899.43
2019-01-24T00:28:32.850Z,100901.44
2019-01-24T00:31:33.804Z,100912.36
2019-01-24T00:34:35.949Z,100914.83
2019-01-24T00:37:36.864Z,100924.05
2019-01-24T00:40:40.039Z,100926.21
2019-01-24T00:43:42.617Z,100924.89
2019-01-24T00:46:43.550Z,100928.28
2019-01-24T00:49:46.362Z,100930.52
2019-01-24T00:52:48.826Z,100923.64
2019-01-24T00:55:49.819Z,100924.64
2019-01-24T00:58:51.812Z,100935.73
2019-01-24T01:01:52.732Z,100932.45
2019-01-24T01:04:55.688Z,100933.36
2019-01-24T01:07:56.617Z,100927.76
2019-01-24T01:10:57.556Z,100926.30
2019-01-24T01:13:58.505Z,100929.84
2019-01-24T01:16:59.431Z,100930.65
2019-01-24T01:20:00.357Z,100936.92
2019-01-24T01:23:03.262Z,100933.14
2019-01-24T01:26:04.172Z,100941.86
2019-01-24T01:29:05.178Z,100943.69
2019-01-24T01:32:06.097Z,100944.08
2019-01-24T01:35:07.270Z,100946.84
2019-01-24T01:38:08.191Z,100948.25
2019-01-24T01:41:09.175Z,100951.69
2019-01-24T01:44:10.145Z,100949.22
2019-01-24T01:47:11.090Z,100944.99
2019-01-24T01:50:14.613Z,100952.78
2019-01-24T01:53:15.721Z,100948.98
2019-01-24T01:56:16.671Z,100947.25
2019-01-24T01:59:20.010Z,100959.97
2019-01-24T02:02:21.102Z,100948.85
2019-01-24T02:05:22.303Z,100951.11
2019-01-24T02:08:26.187Z,100952.88
2019-01-24T02:11:29.983Z,100957.50
2019-01-24T02:14:31.282Z,100967.98
2019-01-24T02:17:32.191Z,100971.89
2019-01-24T02:20:33.117Z,100968.23
2019-01-24T02:23:34.321Z,100968.39
2019-01-24T02:26:39.496Z,100969.61
2019-01-24T02:29:42.307Z,100970.07
2019-01-24T02:32:43.243Z,100963.44
2019-01-24T02:35:44.179Z,100973.70
2019-01-24T02:38:45.146Z,100975.45
2019-01-24T02:41:54.580Z,100985.98
2019-01-24T02:44:55.521Z,100993.63
2019-01-24T02:47:56.437Z,100989.40
2019-01-24T02:50:57.494Z,100991.08
2019-01-24T02:53:58.487Z,100992.00
2019-01-24T02:56:59.527Z,100986.36
2019-01-24T03:00:00.444Z,100992.92
2019-01-24T03:03:01.702Z,100999.50
2019-01-24T03:06:02.616Z,101007.57
2019-01-24T03:09:04.863Z,101000.16
2019-01-24T03:12:05.887Z,100995.47
2019-01-24T03:15:09.938Z,101009.48
2019-01-24T03:18:10.883Z,101010.14
2019-01-24T03:21:11.800Z,101018.47
2019-01-24T03:24:12.850Z,101019.73
2019-01-24T03:27:17.655Z,101024.39
2019-01-24T03:30:20.414Z,101021.88
2019-01-24T03:33:21.606Z,101026.63
2019-01-24T03:36:22.537Z,101028.70
2019-01-24T03:39:23.451Z,101031.92
2019-01-24T03:42:26.625Z,101039.31
2019-01-24T03:45:27.528Z,101042.78
2019-01-24T03:48:28.483Z,101037.53
2019-01-24T03:51:29.419Z,101037.70
2019-01-24T03:54:33.136Z,101037.64
2019-01-24T03:57:34.031Z,101040.36
2019-01-24T04:00:34.970Z,101028.54
2019-01-24T04:03:38.351Z,101026.20
2019-01-24T04:06:41.504Z,101027.20
2019-01-24T04:09:42.429Z,101034.94
2019-01-24T04:12:43.601Z,101027.03
2019-01-24T04:15:46.434Z,101037.34
2019-01-24T04:18:47.362Z,101029.05
2019-01-24T04:21:48.281Z,101026.25
2019-01-24T04:24:50.749Z,101026.23
2019-01-24T04:27:51.665Z,101031.77
2019-01-24T04:30:52.602Z,101027.83
2019-01-24T04:33:53.637Z,101027.99
2019-01-24T04:36:54.563Z,101027.89
2019-01-24T04:39:55.501Z,101024.33
2019-01-24T04:42:57.918Z,101020.83
2019-01-24T04:45:58.863Z,101015.38
2019-01-24T04:48:59.804Z,101012.41
2019-01-24T04:52:00.760Z,101020.02
2019-01-24T04:55:04.109Z,101014.06
2019-01-24T04:58:05.067Z,101014.27
2019-01-24T05:01:05.966Z,101019.36
2019-01-24T05:04:07.042Z,101015.19
2019-01-24T05:07:07.987Z,101012.31
2019-01-24T05:10:08.927Z,101012.39
2019-01-24T05:13:10.105Z,101028.97
2019-01-24T05:16:11.150Z,101019.78
2019-01-24T05:19:12.095Z,101019.61
2019-01-24T05:22:13.028Z,101035.14
2019-01-24T05:25:15.610Z,101021.28
2019-01-24T05:28:16.585Z,101032.12
2019-01-24T05:31:20.169Z,101025.98
2019-01-24T05:34:21.367Z,101030.61
2019-01-24T05:37:24.535Z,101030.50
2019-01-24T05:40:25.461Z,101039.97
2019-01-24T05:43:28.500Z,101040.97
2019-01-24T05:46:29.431Z,101039.83
2019-01-24T05:49:30.337Z,101037.02
2019-01-24T05:52:31.308Z,101048.34
2019-01-24T05:55:32.324Z,101049.27
2019-01-24T05:58:33.280Z,101061.27
2019-01-24T06:01:35.315Z,101071.08
2019-01-24T06:04:38.515Z,101079.67
2019-01-24T06:07:39.427Z,101090.22
2019-01-24T06:10:40.385Z,101089.11
2019-01-24T06:13:41.563Z,101082.44
2019-01-24T06:16:42.496Z,101091.75
2019-01-24T06:19:43.417Z,101094.95
2019-01-24T06:22:44.422Z,101109.83
2019-01-24T06:25:48.339Z,101113.97
2019-01-24T06:28:49.542Z,101128.45
2019-01-24T06:31:50.464Z,101138.34
2019-01-24T06:34:51.617Z,101136.18
2019-01-24T06:37:57.338Z,101138.61
2019-01-24T06:40:58.294Z,101139.20
2019-01-24T06:44:00.290Z,101132.20
2019-01-24T06:47:01.513Z,101135.86
2019-01-24T06:50:05.842Z,101134.55
2019-01-24T06:53:08.619Z,101139.95
2019-01-24T06:56:09.557Z,101142.94
2019-01-24T06:59:10.481Z,101139.38
2019-01-24T07:02:11.412Z,101148.06
2019-01-24T07:05:15.585Z,101147.12
2019-01-24T07:08:17.627Z,101152.59
2019-01-24T07:11:19.423Z,101158.36
2019-01-24T07:14:22.650Z,101150.97
2019-01-24T07:17:23.589Z,101147.50
2019-01-24T07:20:27.726Z,101147.39
2019-01-24T07:23:30.455Z,101150.60
2019-01-24T07:26:32.927Z,101146.81
2019-01-24T07:29:37.675Z,101152.05
2019-01-24T07:32:38.654Z,101150.78
2019-01-24T07:35:40.736Z,101146.81
2019-01-24T07:38:41.635Z,101149.28
2019-01-24T07:41:42.726Z,101149.80
2019-01-24T07:44:45.545Z,101149.56
2019-01-24T07:47:46.610Z,101164.00
2019-01-24T07:50:47.541Z,101161.97
2019-01-24T07:53:52.778Z,101177.49
2019-01-24T07:56:54.716Z,101175.95
2019-01-24T07:59:56.953Z,101180.86
2019-01-24T08:03:00.290Z,101181.36
2019-01-24T08:06:01.335Z,101184.14
2019-01-24T08:09:07.116Z,101185.07
2019-01-24T08:12:08.087Z,101186.02
2019-01-24T08:15:11.300Z,101188.66
2019-01-24T08:18:12.231Z,101187.55
2019-01-24T08:21:13.186Z,101189.67
2019-01-24T08:24:16.252Z,101185.59
2019-01-24T08:27:17.478Z,101190.06
2019-01-24T08:30:20.610Z,101197.94
2019-01-24T08:33:23.692Z,101198.64
2019-01-24T08:36:24.636Z,101196.03
2019-01-24T08:39:25.802Z,101209.07
2019-01-24T08:42:28.756Z,101215.07
2019-01-24T08:45:29.829Z,101225.30
2019-01-24T08:48:30.845Z,101233.41
2019-01-24T08:51:31.858Z,101234.61
2019-01-24T08:54:32.993Z,101229.68
2019-01-24T08:57:36.491Z,101237.21
2019-01-24T09:00:37.418Z,101235.84
2019-01-24T09:03:38.560Z,101236.86
2019-01-24T09:06:39.557Z,101233.48
2019-01-24T09:09:40.480Z,101248.64
2019-01-24T09:12:41.449Z,101242.01
2019-01-24T09:15:42.423Z,101251.16
2019-01-24T09:18:43.478Z,101244.13
2019-01-24T09:21:44.439Z,101246.49
2019-01-24T09:27:08.797Z,101237.09
2019-01-24T09:30:16.295Z,101231.77
2019-01-24T09:33:18.428Z,101238.18
2019-01-24T09:36:20.422Z,101234.45
2019-01-24T09:39:22.412Z,101238.59
2019-01-24T09:42:24.449Z,101245.41
2019-01-24T09:45:27.918Z,101251.40
2019-01-24T09:48:29.936Z,101253.78
2019-01-24T09:51:31.969Z,101261.61
2019-01-24T09:54:34.171Z,101261.05
2019-01-24T09:57:37.296Z,101264.50
2019-01-24T10:00:39.286Z,101270.39
2019-01-24T10:03:41.713Z,101269.53
2019-01-24T10:06:43.729Z,101269.68
2019-01-24T10:09:45.970Z,101278.19
2019-01-24T10:12:48.257Z,101280.78
2019-01-24T10:15:50.346Z,101284.60
2019-01-24T10:18:52.766Z,101281.39
2019-01-24T10:21:54.810Z,101280.90
2019-01-24T10:24:59.294Z,101282.50
2019-01-24T10:28:01.332Z,101286.55
2019-01-24T10:31:03.337Z,101287.11
2019-01-24T10:34:08.381Z,101286.48
2019-01-24T10:37:10.387Z,101286.00
2019-01-24T10:40:15.463Z,101282.26
2019-01-24T10:43:17.555Z,101287.38
2019-01-24T10:46:19.562Z,101280.82
2019-01-24T10:49:21.550Z,101278.83
2019-01-24T10:52:24.811Z,101291.67
2019-01-24T10:55:31.542Z,101289.16
2019-01-24T10:58:38.494Z,101280.77
2019-01-24T11:01:42.999Z,101282.37
2019-01-24T11:04:45.360Z,101296.31
2019-01-24T11:07:47.419Z,101287.22
2019-01-24T11:10:49.563Z,101289.24
2019-01-24T11:13:52.871Z,101289.69
2019-01-24T11:16:54.863Z,101283.92
2019-01-24T11:19:56.841Z,101287.44
2019-01-24T11:23:00.208Z,101285.30
2019-01-24T11:26:02.303Z,101291.77
2019-01-24T11:29:04.663Z,101284.95
2019-01-24T11:32:07.890Z,101279.62
2019-01-24T11:35:12.071Z,101300.47
2019-01-24T11:38:14.072Z,101316.05
2019-01-24T11:41:16.163Z,101324.20
2019-01-24T11:44:18.476Z,101322.89
2019-01-24T11:47:20.653Z,101322.45
2019-01-24T11:50:22.659Z,101315.70
2019-01-24T11:53:25.010Z,101297.98
2019-01-24T11:56:27.099Z,101290.42
2019-01-24T11:59:30.346Z,101279.42
2019-01-24T12:02:39.646Z,101276.71
2019-01-24T12:05:38.099Z,101276.80
2019-01-24T12:08:40.143Z,101277.26
2019-01-24T12:11:42.162Z,101279.70
2019-01-24T12:14:45.531Z,101286.64
2019-01-24T12:17:47.528Z,101295.95
2019-01-24T12:20:49.523Z,101295.63
2019-01-24T12:23:51.646Z,101292.10
2019-01-24T12:26:54.856Z,101285.58
2019-01-24T12:29:56.857Z,101279.88
2019-01-24T12:32:59.456Z,101287.05
2019-01-24T12:36:01.554Z,101283.48
2019-01-24T12:39:09.298Z,101288.36
2019-01-24T12:42:11.312Z,101280.59
2019-01-24T12:45:22.769Z,101278.11
2019-01-24T12:48:24.866Z,101279.73
2019-01-24T12:51:28.102Z,101278.33
2019-01-24T12:54:30.642Z,101271.44
2019-01-24T12:57:32.633Z,101272.59
2019-01-24T13:00:37.638Z,101272.57
2019-01-24T13:03:39.833Z,101268.66
2019-01-24T13:06:44.332Z,101273.10
2019-01-24T13:09:46.337Z,101269.37
2019-01-24T13:12:48.333Z,101276.97
2019-01-24T13:15:52.088Z,101276.83
2019-01-24T13:18:54.114Z,101275.55
2019-01-24T13:21:56.146Z,101275.55
2019-01-24T13:24:58.414Z,101271.16
2019-01-24T13:28:00.540Z,101263.43
2019-01-24T13:31:02.623Z,101264.03
2019-01-24T13:34:06.062Z,101268.27
2019-01-24T13:37:08.248Z,101257.97
2019-01-24T13:40:12.356Z,101261.31
2019-01-24T13:43:14.548Z,101258.44
2019-01-24T13:46:19.589Z,101236.84
2019-01-24T13:49:21.618Z,101236.20
2019-01-24T13:52:23.624Z,101244.11
2019-01-24T13:55:25.943Z,101242.73
2019-01-24T13:58:27.946Z,101243.16
2019-01-24T14:01:32.225Z,101246.58
2019-01-24T14:04:39.014Z,101249.84
2019-01-24T14:07:41.016Z,101256.92
2019-01-24T14:10:44.539Z,101265.27
2019-01-24T14:13:46.695Z,101269.66
2019-01-24T14:16:48.736Z,101273.44
2019-01-24T14:19:53.036Z,101281.16
2019-01-24T14:22:58.266Z,101282.03
2019-01-24T14:26:00.307Z,101284.40
2019-01-24T14:29:05.381Z,101287.05
2019-01-24T14:32:07.472Z,101279.48
2019-01-24T14:35:11.446Z,101287.17
2019-01-24T14:38:14.375Z,101282.53
2019-01-24T14:41:20.887Z,101294.27
2019-01-24T14:44:23.145Z,101293.45
2019-01-24T14:47:25.254Z,101299.22
2019-01-24T14:50:29.391Z,101310.67
2019-01-24T14:53:31.480Z,101321.14
2019-01-24T14:56:33.542Z,101313.17
2019-01-24T14:59:35.621Z,101309.17
2019-01-24T15:02:37.742Z,101308.09
2019-01-24T15:05:39.747Z,101302.23
2019-01-24T15:08:41.762Z,101313.66
2019-01-24T15:11:43.800Z,101319.25
2019-01-24T15:14:46.071Z,101313.64
2019-01-24T15:17:48.067Z,101309.69
2019-01-24T15:20:50.142Z,101314.45
2019-01-24T15:23:52.335Z,101314.77
2019-01-24T15:26:57.229Z,101305.57
2019-01-24T15:29:59.252Z,101312.69
2019-01-24T15:33:01.574Z,101311.75
2019-01-24T15:36:03.666Z,101309.94
2019-01-24T15:39:06.844Z,101311.67
2019-01-24T15:42:08.894Z,101311.34
2019-01-24T15:45:11.263Z,101315.32
2019-01-24T15:48:13.257Z,101317.02
2019-01-24T15:51:16.601Z,101321.67
2019-01-24T15:54:19.182Z,101321.19
2019-01-24T15:57:23.679Z,101324.94
2019-01-24T16:00:27.669Z,101323.27
2019-01-24T16:03:29.731Z,101323.63
2019-01-24T16:06:31.764Z,101328.28
2019-01-24T16:09:33.795Z,101335.63
2019-01-24T16:12:35.802Z,101340.73
2019-01-24T16:15:38.129Z,101346.80
2019-01-24T16:18:40.191Z,101341.98
2019-01-24T16:21:42.196Z,101343.88
2019-01-24T16:24:44.274Z,101342.25
2019-01-24T16:27:46.349Z,101340.23
2019-01-24T16:30:48.460Z,101338.97
2019-01-24T16:33:52.326Z,101350.62
2019-01-24T16:36:57.117Z,101355.47
2019-01-24T16:39:59.157Z,101355.21
2019-01-24T16:43:01.313Z,101361.05
2019-01-24T16:46:03.732Z,101356.20
2019-01-24T16:49:05.744Z,101357.83
2019-01-24T16:52:07.889Z,101361.76
2019-01-24T16:55:11.355Z,101364.50
2019-01-24T16:58:13.561Z,101369.22
2019-01-24T17:01:18.070Z,101382.03
2019-01-24T17:04:20.322Z,101384.38
2019-01-24T17:07:22.348Z,101389.50
2019-01-24T17:10:24.417Z,101388.45
2019-01-24T17:13:27.877Z,101388.72
2019-01-24T17:16:29.907Z,101387.14
2019-01-24T17:19:34.376Z,101395.40
2019-01-24T17:22:36.411Z,101400.09
2019-01-24T17:25:38.474Z,101404.16
2019-01-24T17:28:40.609Z,101419.08
2019-01-24T17:31:45.340Z,101418.25
2019-01-24T17:34:47.455Z,101421.94
2019-01-24T17:37:52.203Z,101418.25
2019-01-24T17:40:54.211Z,101423.13
2019-01-24T17:43:57.714Z,101431.73
2019-01-24T17:46:59.771Z,101427.25
2019-01-24T17:50:01.777Z,101433.81
2019-01-24T17:53:03.925Z,101429.67
2019-01-24T17:56:05.972Z,101435.73
2019-01-24T17:59:07.923Z,101438.45
2019-01-24T18:02:10.998Z,101453.14
2019-01-24T18:05:13.247Z,101446.89
2019-01-24T18:08:15.490Z,101446.81
2019-01-24T18:11:19.344Z,101453.72
2019-01-24T18:14:21.564Z,101459.84
2019-01-24T18:17:26.338Z,101459.35
2019-01-24T18:20:30.195Z,101463.25
2019-01-24T18:23:32.370Z,101456.78
2019-01-24T18:26:34.377Z,101451.28
2019-01-24T18:29:36.429Z,101452.82
2019-01-24T18:32:38.544Z,101453.88
2019-01-24T18:35:40.693Z,101458.27
2019-01-24T18:38:42.754Z,101467.03
2019-01-24T18:41:44.739Z,101470.33
2019-01-24T18:44:48.179Z,101479.36
2019-01-24T18:47:51.402Z,101477.67
2019-01-24T18:50:53.444Z,101490.20
2019-01-24T18:53:56.561Z,101491.47
2019-01-24T18:56:58.580Z,101496.78
2019-01-24T19:00:00.719Z,101492.93
2019-01-24T19:03:03.290Z,101498.07
2019-01-24T19:06:05.299Z,101504.27
2019-01-24T19:09:08.048Z,101500.30
2019-01-24T19:12:10.075Z,101500.22
2019-01-24T19:15:14.329Z,101492.97
2019-01-24T19:18:18.181Z,101498.97
2019-01-24T19:21:27.370Z,101505.34
2019-01-24T19:24:29.917Z,101503.25
2019-01-24T19:27:36.911Z,101502.16
2019-01-24T19:30:38.991Z,101503.16
2019-01-24T19:33:42.735Z,101501.73
2019-01-24T19:36:47.085Z,101501.42
2019-01-24T19:39:49.095Z,101497.53
2019-01-24T19:42:51.286Z,101507.87
2019-01-24T19:45:53.265Z,101500.09
2019-01-24T19:48:55.280Z,101512.72
2019-01-24T19:51:57.277Z,101519.13
2019-01-24T19:54:59.702Z,101513.77
2019-01-24T19:58:01.693Z,101512.29
2019-01-24T20:01:03.787Z,101516.95
2019-01-24T20:04:06.171Z,101520.06
2019-01-24T20:07:08.184Z,101523.40
2019-01-24T20:10:12.419Z,101530.72
2019-01-24T20:13:14.512Z,101529.39
2019-01-24T20:16:20.433Z,101527.12
2019-01-24T20:19:22.491Z,101528.52
2019-01-24T20:22:27.457Z,101525.73
2019-01-24T20:25:30.561Z,101525.37
2019-01-24T20:28:32.677Z,101531.25
2019-01-24T20:31:34.648Z,101533.30
2019-01-24T20:34:36.759Z,101525.72
2019-01-24T20:37:41.041Z,101537.09
2019-01-24T20:40:45.794Z,101543.51
2019-01-24T20:43:47.906Z,101546.84
2019-01-24T20:46:49.931Z,101542.44
2019-01-24T20:49:52.070Z,101546.73
2019-01-24T20:52:57.460Z,101538.13
2019-01-24T20:55:59.532Z,101551.94
2019-01-24T20:59:07.715Z,101546.98
2019-01-24T21:02:09.796Z,101548.16
2019-01-24T21:05:12.908Z,101552.97
2019-01-24T21:08:17.489Z,101552.49
2019-01-24T21:11:19.511Z,101558.61
2019-01-24T21:14:22.856Z,101555.80
2019-01-24T21:17:24.905Z,101552.77
2019-01-24T21:20:29.723Z,101552.89
2019-01-24T21:23:31.800Z,101562.64
2019-01-24T21:26:33.871Z,101563.02
2019-01-24T21:29:35.906Z,101569.89
2019-01-24T21:32:38.423Z,101573.78
2019-01-24T21:35:40.455Z,101564.06
2019-01-24T21:38:42.521Z,101570.08
2019-01-24T21:41:44.847Z,101572.47
2019-01-24T21:44:47.019Z,101577.47
2019-01-24T21:47:49.130Z,101578.67
2019-01-24T21:50:51.293Z,101575.83
2019-01-24T21:53:54.702Z,101582.19
2019-01-24T21:56:56.755Z,101590.15
2019-01-24T21:59:58.777Z,101589.17
2019-01-24T22:03:01.092Z,101598.85
2019-01-24T22:06:03.113Z,101599.70
2019-01-24T22:09:07.726Z,101600.89
2019-01-24T22:12:09.829Z,101599.28
2019-01-24T22:15:14.404Z,101598.71
2019-01-24T22:18:16.451Z,101593.39
2019-01-24T22:21:18.578Z,101589.27
2019-01-24T22:24:20.956Z,101594.38
2019-01-24T22:27:23.071Z,101596.34
2019-01-24T22:30:34.403Z,101602.11
2019-01-24T22:33:36.659Z,101608.56
2019-01-24T22:36:38.701Z,101614.03
2019-01-24T22:39:41.100Z,101611.92
2019-01-24T22:42:43.247Z,101610.80
2019-01-24T22:45:45.322Z,101615.96
2019-01-24T22:48:49.974Z,101611.39
2019-01-24T22:51:54.650Z,101609.92
2019-01-24T22:54:56.882Z,101609.26
2019-01-24T22:57:58.946Z,101609.48
2019-01-24T23:01:48.811Z,101612.23
2019-01-24T23:04:51.253Z,101606.51
2019-01-24T23:07:53.275Z,101600.58
2019-01-24T23:10:55.324Z,101600.34
2019-01-24T23:13:57.537Z,101601.79
2019-01-24T23:16:59.565Z,101602.22
2019-01-24T23:20:01.584Z,101605.36
2019-01-24T23:23:04.172Z,101602.87
2019-01-24T23:26:06.188Z,101607.32
2019-01-24T23:29:08.232Z,101597.62
2019-01-24T23:32:10.295Z,101602.72
2019-01-24T23:35:12.337Z,101600.53
2019-01-24T23:38:14.376Z,101608.73
2019-01-24T23:41:16.389Z,101607.63
2019-01-24T23:44:20.599Z,101603.36
2019-01-24T23:47:24.203Z,101595.65
2019-01-24T23:50:28.828Z,101595.93
2019-01-24T23:53:32.720Z,101592.09
2019-01-24T23:56:39.408Z,101583.81
2019-01-24T23:59:41.508Z,101594.84
